»·PEaware :: N522PM KFAT-KMRY

N522PM :: KFAT-KMRY

FLIGHT INFORMATION

Flight Status: Arrived
Operator: Privately registered:
United States
More flights under this callsign
Pilot: Bruce B. (6887)
Aircraft: BEECH AIRCRAFT BONANZA
(BE36)
More flights by this aircraft type
Origin: KFAT Fresno Yosemite Intl
United States
Destination: KMRY Monterey Peninsula
United States
More flights between these airports :: More routes between these airports
Route: DIRECT
File this flight plan on PilotEdge
Remarks:
Altitude:
(Current/Filed)
6,500ft
Speed:
(Current/Filed)
160kts
Departed: 02-Oct-19 05:25 PM
Arrived: 02-Oct-19 06:09 PM
Distance/Time
Traveled:
103nm/0:44
Distance/Time
To Go:
Arrived

Flight Plot

Page will automatically refresh every two minutes.

Flight plan parsing failed; only flown route is shown


Map Options




Map Legend


Flown Route
Filed Route
Departure Airport
Arrival Airport
Navaid (VOR, NDB)
Fix

Horizontal Profiles

Position Reports

Time Latitude Longitude Heading Altitude Ground
Speed
02-Oct-19 17:07 36.780669 -119.714354 304 340ft 0kts
02-Oct-19 17:08 36.780670 -119.714356 304 340ft 0kts
02-Oct-19 17:09 36.780671 -119.714357 304 340ft 0kts
02-Oct-19 17:10 36.780671 -119.714358 304 340ft 0kts
02-Oct-19 17:12 36.774915 -119.723184 305 340ft 0kts
02-Oct-19 17:13 36.774915 -119.723184 305 340ft 0kts
02-Oct-19 17:14 36.774915 -119.723184 305 340ft 0kts
02-Oct-19 17:15 36.774915 -119.723184 305 340ft 0kts
02-Oct-19 17:16 36.774915 -119.723184 305 340ft 0kts
02-Oct-19 17:17 36.774915 -119.723184 305 340ft 0kts
02-Oct-19 17:18 36.774915 -119.723184 305 340ft 0kts
02-Oct-19 17:19 36.774755 -119.722908 305 340ft 2kts
02-Oct-19 17:20 36.773555 -119.719977 122 340ft 28kts
02-Oct-19 17:21 36.771493 -119.714580 125 340ft 19kts
02-Oct-19 17:22 36.770085 -119.710933 32 340ft 0kts
02-Oct-19 17:23 36.770085 -119.710932 32 340ft 0kts
02-Oct-19 17:24 36.774478 -119.717304 306 423ft 85kts
02-Oct-19 17:25 36.791050 -119.742553 306 1802ft 94kts
02-Oct-19 17:26 36.807742 -119.770619 306 3059ft 102kts
02-Oct-19 17:27 36.825366 -119.800039 307 4196ft 107kts
02-Oct-19 17:28 36.825832 -119.833717 251 5165ft 113kts
02-Oct-19 17:29 36.821791 -119.875557 262 5975ft 121kts
02-Oct-19 17:30 36.817079 -119.918860 261 6533ft 141kts
02-Oct-19 17:31 36.811243 -119.971939 261 6515ft 161kts
02-Oct-19 17:32 36.804953 -120.028276 261 6511ft 164kts
02-Oct-19 17:33 36.798616 -120.084668 261 6502ft 164kts
02-Oct-19 17:34 36.792246 -120.141069 261 6499ft 164kts
02-Oct-19 17:35 36.785834 -120.197593 261 6498ft 164kts
02-Oct-19 17:36 36.779381 -120.254238 261 6498ft 164kts
02-Oct-19 17:37 36.772923 -120.310683 261 6498ft 164kts
02-Oct-19 17:38 36.766457 -120.366919 261 6497ft 163kts
02-Oct-19 17:39 36.758765 -120.422748 264 6500ft 163kts
02-Oct-19 17:40 36.754569 -120.479223 262 6497ft 163kts
02-Oct-19 17:41 36.746833 -120.535140 259 6503ft 163kts
02-Oct-19 17:42 36.738700 -120.591104 259 6505ft 163kts
02-Oct-19 17:43 36.730665 -120.647083 259 6505ft 164kts
02-Oct-19 17:44 36.722738 -120.702962 259 6506ft 164kts
02-Oct-19 17:45 36.714880 -120.759012 259 6507ft 164kts
02-Oct-19 17:46 36.707403 -120.811434 259 6474ft 165kts
02-Oct-19 17:47 36.698673 -120.867554 258 6472ft 164kts
02-Oct-19 17:48 36.690207 -120.923758 259 6474ft 166kts
02-Oct-19 17:49 36.681676 -120.980260 259 6474ft 166kts
02-Oct-19 17:50 36.673775 -121.037242 260 6475ft 166kts
02-Oct-19 17:51 36.666964 -121.090055 261 6476ft 166kts
02-Oct-19 17:52 36.659958 -121.146932 261 6477ft 166kts
02-Oct-19 17:53 36.653036 -121.203883 261 6478ft 166kts
02-Oct-19 17:54 36.646190 -121.260949 261 6479ft 166kts
02-Oct-19 17:55 36.638688 -121.317684 259 6415ft 170kts
02-Oct-19 17:57 36.629804 -121.375486 259 5745ft 164kts
02-Oct-19 17:58 36.621278 -121.430757 259 5052ft 161kts
02-Oct-19 17:59 36.612753 -121.485400 260 4373ft 159kts
02-Oct-19 18:00 36.604380 -121.539132 260 3712ft 157kts
02-Oct-19 18:01 36.596139 -121.587918 260 2958ft 135kts
02-Oct-19 18:02 36.589363 -121.629657 264 2783ft 110kts
02-Oct-19 18:03 36.584792 -121.666675 264 2801ft 110kts
02-Oct-19 18:04 36.580314 -121.703305 263 2454ft 95kts
02-Oct-19 18:05 36.576694 -121.736195 266 2011ft 95kts
02-Oct-19 18:06 36.574787 -121.768914 265 1729ft 91kts
02-Oct-19 18:07 36.573881 -121.799970 271 1216ft 84kts
02-Oct-19 18:08 36.580606 -121.825656 291 468ft 76kts
02-Oct-19 18:09 36.586604 -121.843210 294 209ft 27kts
02-Oct-19 18:10 36.587389 -121.847981 292 209ft 25kts
02-Oct-19 18:11 36.588943 -121.853303 261 209ft 9kts
02-Oct-19 18:12 36.588872 -121.853940 329 209ft 0kts
02-Oct-19 18:13 36.588872 -121.853940 329 209ft 0kts

Navigation Log

Ident Type
Flight plan parsing failed, navigation log unavailable